createdAt,value
2018-12-16T00:02:14.307Z,14.23
2018-12-16T00:04:46.677Z,14.67
2018-12-16T00:07:08.221Z,13.63
2018-12-16T00:09:35.168Z,13.83
2018-12-16T00:12:02.115Z,14.30
2018-12-16T00:14:29.136Z,13.50
2018-12-16T00:16:56.084Z,13.53
2018-12-16T00:19:23.024Z,13.97
2018-12-16T00:21:50.166Z,14.10
2018-12-16T00:24:17.215Z,12.97
2018-12-16T00:26:55.842Z,13.53
2018-12-16T00:29:22.780Z,14.27
2018-12-16T00:31:49.754Z,14.00
2018-12-16T00:34:16.705Z,13.53
2018-12-16T00:36:43.651Z,13.53
2018-12-16T00:39:10.649Z,13.03
2018-12-16T00:41:37.645Z,13.93
2018-12-16T00:44:04.600Z,13.73
2018-12-16T00:46:31.589Z,13.63
2018-12-16T00:48:58.612Z,13.07
2018-12-16T00:51:25.568Z,14.00
2018-12-16T00:53:52.524Z,13.73
2018-12-16T00:56:19.473Z,13.63
2018-12-16T00:58:46.410Z,13.70
2018-12-16T01:01:13.909Z,13.60
2018-12-16T01:03:40.882Z,12.57
2018-12-16T01:06:07.837Z,14.40
2018-12-16T01:08:34.791Z,14.17
2018-12-16T01:11:01.787Z,13.20
2018-12-16T01:13:28.763Z,13.70
2018-12-16T01:15:55.716Z,13.37
2018-12-16T01:18:22.721Z,13.60
2018-12-16T01:20:49.668Z,13.07
2018-12-16T01:23:16.612Z,12.67
2018-12-16T01:25:43.618Z,13.50
2018-12-16T01:28:10.552Z,13.63
2018-12-16T01:30:37.576Z,14.00
2018-12-16T01:33:04.532Z,13.20
2018-12-16T01:35:31.479Z,13.67
2018-12-16T01:37:58.428Z,14.30
2018-12-16T01:40:25.400Z,14.03
2018-12-16T01:42:52.341Z,13.20
2018-12-16T01:45:19.291Z,12.77
2018-12-16T01:47:46.293Z,12.50
2018-12-16T01:50:13.333Z,13.67
2018-12-16T01:52:40.273Z,12.77
2018-12-16T01:55:07.378Z,13.67
2018-12-16T01:57:34.347Z,13.70
2018-12-16T02:00:01.281Z,13.40
2018-12-16T02:02:28.629Z,13.57
2018-12-16T02:04:55.563Z,13.70
2018-12-16T02:07:22.516Z,13.93
2018-12-16T02:09:49.491Z,14.23
2018-12-16T02:12:16.483Z,14.33
2018-12-16T02:14:43.441Z,13.23
2018-12-16T02:17:10.448Z,13.53
2018-12-16T02:19:37.804Z,13.87
2018-12-16T02:22:05.087Z,13.73
2018-12-16T02:24:32.462Z,13.70
2018-12-16T02:26:59.412Z,13.70
2018-12-16T02:29:26.416Z,13.10
2018-12-16T02:31:53.378Z,13.93
2018-12-16T02:34:20.633Z,14.30
2018-12-16T02:36:47.544Z,13.50
2018-12-16T02:39:14.531Z,13.33
2018-12-16T02:41:41.476Z,14.13
2018-12-16T02:44:08.424Z,14.63
2018-12-16T02:46:35.373Z,13.70
2018-12-16T02:49:02.320Z,14.27
2018-12-16T02:51:29.266Z,12.93
2018-12-16T02:53:56.217Z,14.83
2018-12-16T02:56:23.170Z,14.90
2018-12-16T02:58:50.097Z,13.93
2018-12-16T03:01:17.082Z,13.07
2018-12-16T03:03:44.416Z,14.60
2018-12-16T03:06:11.425Z,12.50
2018-12-16T03:08:38.409Z,13.20
2018-12-16T03:11:05.414Z,13.33
2018-12-16T03:13:32.359Z,13.80
2018-12-16T03:15:59.333Z,13.47
2018-12-16T03:18:26.285Z,13.50
2018-12-16T03:20:53.233Z,14.23
2018-12-16T03:23:20.187Z,13.47
2018-12-16T03:25:47.136Z,12.90
2018-12-16T03:28:14.121Z,13.87
2018-12-16T03:30:41.077Z,13.73
2018-12-16T03:33:08.039Z,13.00
2018-12-16T03:35:35.001Z,14.20
2018-12-16T03:38:01.961Z,13.60
2018-12-16T03:40:28.907Z,13.37
2018-12-16T03:42:55.863Z,12.77
2018-12-16T03:45:22.861Z,13.20
2018-12-16T03:47:49.814Z,13.53
2018-12-16T03:50:16.758Z,13.47
2018-12-16T03:52:43.711Z,13.60
2018-12-16T03:55:10.699Z,13.67
2018-12-16T03:57:37.665Z,13.93
2018-12-16T04:00:05.137Z,13.30
2018-12-16T04:02:32.075Z,13.90
2018-12-16T04:04:59.268Z,13.27
2018-12-16T04:07:26.239Z,13.83
2018-12-16T04:09:53.180Z,13.93
2018-12-16T04:12:20.168Z,14.30
2018-12-16T04:14:47.144Z,13.70
2018-12-16T04:17:14.079Z,13.33
2018-12-16T04:19:41.050Z,13.77
2018-12-16T04:22:08.070Z,13.57
2018-12-16T04:24:35.025Z,13.93
2018-12-16T04:27:01.973Z,13.80
2018-12-16T04:29:28.921Z,14.53
2018-12-16T04:31:55.852Z,12.93
2018-12-16T04:34:22.811Z,13.30
2018-12-16T04:36:49.774Z,13.07
2018-12-16T04:39:16.723Z,13.13
2018-12-16T04:41:43.682Z,13.50
2018-12-16T04:44:10.702Z,14.23
2018-12-16T04:46:37.630Z,13.57
2018-12-16T04:49:04.592Z,13.73
2018-12-16T04:51:31.546Z,13.80
2018-12-16T04:53:58.485Z,13.63
2018-12-16T04:56:25.417Z,14.07
2018-12-16T04:58:52.388Z,14.00
2018-12-16T05:01:19.344Z,13.57
2018-12-16T05:03:46.288Z,13.87
2018-12-16T05:06:13.448Z,14.07
2018-12-16T05:08:40.471Z,14.27
2018-12-16T05:11:07.441Z,15.03
2018-12-16T05:13:34.453Z,14.53
2018-12-16T05:16:01.388Z,15.37
2018-12-16T05:18:28.333Z,14.63
2018-12-16T05:20:55.312Z,15.30
2018-12-16T05:23:22.281Z,15.63
2018-12-16T05:25:49.233Z,14.93
2018-12-16T05:28:16.193Z,15.40
2018-12-16T05:30:43.133Z,16.17
2018-12-16T05:33:10.073Z,14.83
2018-12-16T05:35:37.112Z,15.83
2018-12-16T05:38:04.061Z,15.77
2018-12-16T05:40:31.001Z,16.50
2018-12-16T05:42:57.977Z,16.13
2018-12-16T05:45:24.917Z,16.10
2018-12-16T05:47:51.944Z,15.17
2018-12-16T05:50:18.921Z,16.00
2018-12-16T05:52:45.849Z,16.63
2018-12-16T05:55:12.799Z,16.33
2018-12-16T05:57:39.796Z,16.63
2018-12-16T06:00:06.802Z,17.83
2018-12-16T06:02:33.745Z,16.57
2018-12-16T06:05:00.741Z,16.67
2018-12-16T06:07:28.154Z,17.43
2018-12-16T06:09:55.098Z,16.33
2018-12-16T06:12:22.134Z,18.20
2018-12-16T06:14:49.145Z,16.77
2018-12-16T06:17:16.137Z,17.00
2018-12-16T06:19:43.124Z,16.97
2018-12-16T06:22:10.128Z,17.60
2018-12-16T06:24:37.072Z,17.33
2018-12-16T06:27:04.054Z,17.37
2018-12-16T06:29:31.018Z,18.73
2018-12-16T06:31:57.971Z,17.07
2018-12-16T06:34:24.928Z,18.03
2018-12-16T06:36:51.952Z,17.13
2018-12-16T06:39:18.912Z,17.53
2018-12-16T06:41:45.886Z,17.90
2018-12-16T06:44:12.848Z,18.03
2018-12-16T06:46:39.792Z,18.03
2018-12-16T06:49:06.761Z,16.70
2018-12-16T06:51:33.704Z,18.20
2018-12-16T06:54:02.627Z,18.07
2018-12-16T06:56:27.676Z,19.17
2018-12-16T06:58:54.651Z,17.00
2018-12-16T07:01:21.663Z,18.43
2018-12-16T07:03:48.628Z,17.53
2018-12-16T07:06:15.676Z,17.20
2018-12-16T07:08:42.873Z,17.97
2018-12-16T07:11:09.848Z,19.20
2018-12-16T07:13:36.805Z,18.40
2018-12-16T07:16:03.786Z,16.87
2018-12-16T07:18:30.773Z,18.27
2018-12-16T07:20:57.735Z,19.20
2018-12-16T07:23:24.680Z,19.53
2018-12-16T07:25:51.704Z,18.70
2018-12-16T07:28:18.659Z,17.83
2018-12-16T07:30:45.603Z,18.80
2018-12-16T07:33:12.587Z,18.67
2018-12-16T07:35:39.529Z,18.67
2018-12-16T07:38:06.502Z,18.57
2018-12-16T07:40:33.450Z,19.00
2018-12-16T07:43:00.418Z,21.40
2018-12-16T07:45:27.355Z,18.87
2018-12-16T07:47:54.315Z,19.37
2018-12-16T07:50:21.447Z,17.63
2018-12-16T07:52:48.416Z,18.70
2018-12-16T07:55:15.363Z,19.30
2018-12-16T07:57:42.311Z,17.80
2018-12-16T08:00:10.536Z,17.67
2018-12-16T08:02:37.567Z,18.73
2018-12-16T08:05:04.776Z,18.63
2018-12-16T08:07:31.677Z,17.63
2018-12-16T08:09:58.859Z,17.40
2018-12-16T08:12:25.803Z,17.93
2018-12-16T08:14:52.757Z,17.40
2018-12-16T08:17:19.730Z,18.57
2018-12-16T08:19:46.720Z,16.90
2018-12-16T08:22:13.668Z,17.90
2018-12-16T08:24:40.660Z,16.17
2018-12-16T08:27:07.620Z,17.07
2018-12-16T08:29:34.601Z,16.73
2018-12-16T08:32:01.613Z,17.90
2018-12-16T08:34:28.559Z,17.03
2018-12-16T08:36:55.528Z,17.27
2018-12-16T08:39:22.548Z,16.47
2018-12-16T08:41:49.548Z,17.63
2018-12-16T08:44:16.520Z,16.70
2018-12-16T08:46:43.540Z,16.87
2018-12-16T08:49:10.492Z,17.60
2018-12-16T08:51:37.444Z,16.93
2018-12-16T08:54:04.426Z,16.87
2018-12-16T08:56:31.444Z,16.47
2018-12-16T08:58:58.364Z,15.97
2018-12-16T09:01:25.325Z,16.83
2018-12-16T09:03:52.309Z,15.47
2018-12-16T09:06:19.413Z,16.07
2018-12-16T09:08:46.437Z,17.07
2018-12-16T09:11:13.690Z,16.30
2018-12-16T09:13:40.644Z,15.87
2018-12-16T09:16:07.606Z,16.73
2018-12-16T09:18:34.547Z,15.87
2018-12-16T09:21:01.504Z,16.30
2018-12-16T09:23:28.469Z,15.20
2018-12-16T09:25:55.420Z,15.27
2018-12-16T09:28:22.420Z,16.17
2018-12-16T09:30:49.478Z,16.80
2018-12-16T09:33:16.523Z,16.30
2018-12-16T09:35:43.581Z,16.73
2018-12-16T09:38:10.911Z,17.13
2018-12-16T09:40:37.847Z,16.97
2018-12-16T09:43:04.849Z,15.77
2018-12-16T09:45:31.827Z,15.77
2018-12-16T09:47:58.775Z,16.13
2018-12-16T09:50:25.720Z,16.07
2018-12-16T09:52:52.676Z,15.87
2018-12-16T09:55:19.632Z,16.40
2018-12-16T09:57:46.579Z,15.10
2018-12-16T10:00:13.788Z,16.07
2018-12-16T10:02:40.750Z,15.20
2018-12-16T10:05:07.706Z,15.43
2018-12-16T10:07:34.829Z,15.30
2018-12-16T10:10:01.780Z,15.83
2018-12-16T10:12:29.463Z,15.83
2018-12-16T10:14:56.433Z,16.03
2018-12-16T10:17:23.765Z,14.80
2018-12-16T10:19:50.713Z,13.73
2018-12-16T10:22:17.765Z,15.77
2018-12-16T10:24:51.032Z,14.23
2018-12-16T10:27:11.660Z,14.77
2018-12-16T10:29:38.670Z,14.73
2018-12-16T10:32:05.580Z,14.13
2018-12-16T10:34:32.528Z,14.13
2018-12-16T10:36:59.585Z,14.37
2018-12-16T10:39:26.548Z,14.20
2018-12-16T10:41:53.482Z,14.97
2018-12-16T10:44:20.449Z,14.13
2018-12-16T10:46:47.432Z,13.77
2018-12-16T10:49:15.005Z,14.60
2018-12-16T10:51:42.338Z,13.40
2018-12-16T10:54:09.466Z,14.27
2018-12-16T10:56:36.645Z,15.13
2018-12-16T10:59:03.969Z,14.70
2018-12-16T11:01:31.041Z,14.77
2018-12-16T11:03:58.225Z,14.83
2018-12-16T11:06:25.302Z,14.47
2018-12-16T11:08:52.339Z,14.87
2018-12-16T11:11:19.352Z,15.57
2018-12-16T11:13:46.851Z,14.33
2018-12-16T11:16:13.845Z,15.03
2018-12-16T11:18:40.796Z,17.03
2018-12-16T11:21:07.755Z,16.93
2018-12-16T11:23:34.689Z,16.57
2018-12-16T11:26:01.645Z,16.93
2018-12-16T11:28:28.824Z,15.57
2018-12-16T11:30:55.861Z,15.20
2018-12-16T11:33:23.270Z,14.73
2018-12-16T11:35:50.485Z,14.33
2018-12-16T11:38:17.541Z,13.60
2018-12-16T11:40:44.516Z,13.73
2018-12-16T11:43:11.473Z,13.40
2018-12-16T11:45:38.448Z,14.03
2018-12-16T11:48:06.051Z,12.80
2018-12-16T11:50:32.987Z,12.67
2018-12-16T11:52:59.936Z,12.20
2018-12-16T11:55:26.918Z,12.93
2018-12-16T11:57:53.887Z,12.37
2018-12-16T12:00:20.877Z,12.70
2018-12-16T12:02:48.415Z,12.77
2018-12-16T12:05:15.409Z,12.67
2018-12-16T12:07:42.483Z,13.70
2018-12-16T12:10:09.669Z,14.80
2018-12-16T12:12:36.635Z,13.53
2018-12-16T12:15:04.179Z,13.83
2018-12-16T12:17:31.213Z,13.60
2018-12-16T12:19:58.233Z,13.70
2018-12-16T12:22:25.452Z,14.77
2018-12-16T12:24:52.464Z,14.50
2018-12-16T12:27:19.660Z,15.23
2018-12-16T12:29:46.628Z,16.20
2018-12-16T12:32:13.952Z,17.10
2018-12-16T12:34:41.183Z,17.10
2018-12-16T12:37:08.735Z,17.27
2018-12-16T12:39:35.699Z,17.63
2018-12-16T12:42:02.673Z,16.83
2018-12-16T12:44:29.624Z,21.83
2018-12-16T12:46:56.580Z,22.97
2018-12-16T12:49:23.611Z,19.07
2018-12-16T12:51:50.601Z,19.47
2018-12-16T12:54:17.579Z,18.27
2018-12-16T12:56:44.551Z,16.93
2018-12-16T12:59:11.514Z,16.73
2018-12-16T13:01:38.548Z,15.63
2018-12-16T13:04:05.514Z,15.77
2018-12-16T13:06:32.465Z,15.43
2018-12-16T13:08:59.452Z,15.83
2018-12-16T13:11:26.532Z,14.80
2018-12-16T13:13:53.528Z,15.63
2018-12-16T13:16:21.277Z,15.83
2018-12-16T13:18:48.274Z,14.80
2018-12-16T13:21:15.229Z,15.13
2018-12-16T13:23:43.082Z,15.50
2018-12-16T13:26:10.383Z,16.03
2018-12-16T13:28:37.579Z,16.00
2018-12-16T13:31:04.587Z,16.47
2018-12-16T13:33:31.604Z,17.83
2018-12-16T13:35:58.582Z,17.43
2018-12-16T13:38:25.516Z,18.20
2018-12-16T13:40:52.581Z,17.67
2018-12-16T13:43:19.578Z,15.77
2018-12-16T13:45:46.519Z,16.80
2018-12-16T13:48:13.535Z,17.37
2018-12-16T13:50:40.636Z,16.63
2018-12-16T13:53:07.700Z,16.93
2018-12-16T13:55:40.671Z,17.57
2018-12-16T13:58:01.665Z,18.37
2018-12-16T14:00:28.637Z,17.50
2018-12-16T14:02:55.613Z,19.47
2018-12-16T14:05:22.592Z,20.73
2018-12-16T14:07:49.547Z,20.93
2018-12-16T14:10:16.509Z,17.83
2018-12-16T14:12:43.450Z,17.43
2018-12-16T14:15:10.404Z,17.27
2018-12-16T14:17:37.896Z,16.83
2018-12-16T14:20:06.533Z,17.73
2018-12-16T14:22:33.481Z,18.23
2018-12-16T14:25:00.476Z,17.37
2018-12-16T14:27:27.423Z,18.07
2018-12-16T14:29:54.397Z,17.73
2018-12-16T14:32:21.391Z,17.63
2018-12-16T14:34:48.379Z,17.53
2018-12-16T14:37:15.315Z,18.03
2018-12-16T14:39:42.290Z,18.17
2018-12-16T14:42:09.236Z,17.27
2018-12-16T14:44:36.175Z,26.30
2018-12-16T14:47:03.186Z,21.83
2018-12-16T14:49:30.145Z,21.53
2018-12-16T14:51:57.088Z,18.87
2018-12-16T14:54:24.041Z,18.37
2018-12-16T14:56:50.996Z,20.07
2018-12-16T14:59:17.963Z,19.03
2018-12-16T15:01:44.915Z,19.10
2018-12-16T15:04:11.901Z,18.73
2018-12-16T15:06:38.929Z,18.33
2018-12-16T15:09:07.637Z,18.63
2018-12-16T15:11:34.645Z,18.40
2018-12-16T15:14:01.633Z,20.13
2018-12-16T15:16:28.591Z,19.00
2018-12-16T15:18:55.936Z,18.43
2018-12-16T15:21:22.876Z,21.40
2018-12-16T15:23:49.868Z,20.00
2018-12-16T15:26:16.821Z,20.97
2018-12-16T15:28:43.811Z,19.33
2018-12-16T15:31:10.755Z,17.70
2018-12-16T15:33:37.708Z,19.60
2018-12-16T15:36:04.652Z,18.43
2018-12-16T15:38:31.680Z,18.40
2018-12-16T15:40:58.617Z,18.13
2018-12-16T15:43:25.588Z,19.40
2018-12-16T15:45:52.611Z,18.60
2018-12-16T15:48:19.564Z,18.97
2018-12-16T15:50:47.878Z,19.57
2018-12-16T15:53:13.551Z,20.33
2018-12-16T15:55:40.500Z,19.53
2018-12-16T15:58:07.472Z,19.13
2018-12-16T16:00:34.447Z,16.97
2018-12-16T16:03:01.380Z,17.87
2018-12-16T16:05:28.347Z,16.93
2018-12-16T16:07:55.290Z,16.73
2018-12-16T16:10:22.221Z,17.53
2018-12-16T16:12:49.163Z,18.93
2018-12-16T16:15:16.120Z,19.07
2018-12-16T16:17:43.080Z,18.03
2018-12-16T16:20:10.655Z,17.90
2018-12-16T16:22:37.643Z,18.33
2018-12-16T16:25:04.588Z,18.00
2018-12-16T16:27:31.552Z,17.87
2018-12-16T16:29:58.565Z,18.60
2018-12-16T16:32:25.525Z,18.97
2018-12-16T16:34:52.478Z,25.70
2018-12-16T16:37:19.450Z,26.30
2018-12-16T16:39:46.401Z,34.93
2018-12-16T16:42:13.324Z,40.10
2018-12-16T16:44:40.293Z,29.93
2018-12-16T16:47:07.256Z,26.50
2018-12-16T16:49:34.189Z,20.27
2018-12-16T16:52:01.174Z,19.67
2018-12-16T16:54:28.099Z,30.93
2018-12-16T16:56:55.050Z,30.50
2018-12-16T16:59:22.049Z,26.40
2018-12-16T17:01:48.976Z,27.43
2018-12-16T17:04:15.922Z,18.90
2018-12-16T17:06:42.900Z,19.60
2018-12-16T17:09:09.848Z,18.50
2018-12-16T17:11:36.805Z,20.87
2018-12-16T17:14:03.789Z,19.93
2018-12-16T17:16:30.731Z,20.43
2018-12-16T17:18:58.216Z,18.27
2018-12-16T17:21:25.355Z,18.10
2018-12-16T17:23:52.312Z,17.43
2018-12-16T17:26:19.251Z,18.33
2018-12-16T17:28:46.216Z,18.53
2018-12-16T17:31:13.160Z,17.80
2018-12-16T17:33:40.096Z,17.90
2018-12-16T17:36:07.063Z,17.90
2018-12-16T17:38:34.002Z,18.33
2018-12-16T17:41:00.928Z,19.40
2018-12-16T17:43:27.917Z,18.27
2018-12-16T17:45:54.847Z,19.10
2018-12-16T17:48:21.812Z,19.20
2018-12-16T17:50:48.751Z,19.57
2018-12-16T17:53:15.691Z,19.73
2018-12-16T17:55:42.637Z,17.97
2018-12-16T17:58:09.571Z,19.67
2018-12-16T18:00:36.518Z,19.00
2018-12-16T18:03:03.461Z,18.93
2018-12-16T18:05:30.444Z,18.37
2018-12-16T18:07:57.371Z,17.83
2018-12-16T18:10:24.313Z,18.17
2018-12-16T18:12:51.261Z,19.50
2018-12-16T18:15:18.208Z,18.43
2018-12-16T18:17:45.153Z,19.73
2018-12-16T18:20:12.127Z,18.50
2018-12-16T18:22:39.476Z,19.03
2018-12-16T18:25:06.440Z,18.30
2018-12-16T18:27:33.406Z,17.73
2018-12-16T18:30:00.344Z,18.10
2018-12-16T18:32:27.360Z,18.07
2018-12-16T18:34:54.346Z,17.47
2018-12-16T18:37:21.288Z,16.97
2018-12-16T18:39:48.248Z,16.87
2018-12-16T18:42:15.264Z,17.40
2018-12-16T18:44:42.208Z,17.03
2018-12-16T18:47:09.149Z,16.80
2018-12-16T18:49:37.057Z,16.67
2018-12-16T18:52:04.047Z,17.40
2018-12-16T18:54:31.047Z,18.90
2018-12-16T18:56:58.080Z,18.37
2018-12-16T18:59:25.005Z,18.33
2018-12-16T19:01:51.935Z,19.07
2018-12-16T19:04:21.002Z,19.00
2018-12-16T19:06:47.949Z,18.10
2018-12-16T19:09:15.021Z,17.63
2018-12-16T19:11:42.010Z,18.07
2018-12-16T19:14:09.028Z,19.07
2018-12-16T19:16:35.999Z,19.17
2018-12-16T19:19:02.985Z,20.53
2018-12-16T19:21:29.933Z,20.17
2018-12-16T19:23:58.317Z,19.80
2018-12-16T19:26:25.230Z,19.60
2018-12-16T19:28:52.246Z,20.40
2018-12-16T19:31:19.239Z,19.00
2018-12-16T19:33:46.872Z,19.73
2018-12-16T19:36:13.870Z,20.53
2018-12-16T19:38:40.820Z,19.17
2018-12-16T19:41:07.876Z,19.33
2018-12-16T19:43:35.426Z,20.20
2018-12-16T19:46:02.461Z,23.00
2018-12-16T19:48:29.863Z,21.03
2018-12-16T19:50:56.848Z,21.37
2018-12-16T19:53:23.814Z,21.67
2018-12-16T19:55:50.826Z,22.50
2018-12-16T19:58:17.803Z,20.47
2018-12-16T20:00:44.883Z,20.83
2018-12-16T20:03:11.890Z,19.87
2018-12-16T20:05:44.624Z,18.63
2018-12-16T20:08:11.801Z,19.37
2018-12-16T20:10:38.785Z,20.03
2018-12-16T20:13:05.761Z,20.73
2018-12-16T20:15:32.706Z,21.30
2018-12-16T20:17:59.756Z,19.47
2018-12-16T20:20:26.744Z,19.63
2018-12-16T20:22:53.880Z,21.13
2018-12-16T20:25:21.319Z,23.47
2018-12-16T20:27:48.262Z,20.33
2018-12-16T20:30:21.789Z,19.00
2018-12-16T20:32:48.752Z,18.83
2018-12-16T20:35:15.724Z,17.93
2018-12-16T20:37:42.747Z,18.20
2018-12-16T20:40:09.716Z,18.63
2018-12-16T20:42:36.655Z,17.17
2018-12-16T20:45:04.792Z,17.13
2018-12-16T20:47:31.821Z,17.00
2018-12-16T20:49:58.800Z,17.10
2018-12-16T20:52:25.757Z,17.60
2018-12-16T20:54:52.702Z,16.47
2018-12-16T20:57:19.658Z,17.20
2018-12-16T20:59:46.614Z,16.33
2018-12-16T21:02:13.561Z,17.07
2018-12-16T21:04:40.489Z,16.47
2018-12-16T21:07:07.454Z,17.07
2018-12-16T21:09:34.406Z,17.07
2018-12-16T21:12:01.351Z,17.63
2018-12-16T21:14:34.261Z,16.93
2018-12-16T21:17:07.055Z,16.87
2018-12-16T21:19:33.991Z,16.60
2018-12-16T21:22:00.984Z,17.03
2018-12-16T21:24:27.931Z,16.70
2018-12-16T21:26:55.140Z,16.10
2018-12-16T21:29:22.108Z,15.83
2018-12-16T21:31:49.068Z,15.67
2018-12-16T21:34:16.039Z,16.27
2018-12-16T21:36:43.033Z,16.00
2018-12-16T21:39:10.001Z,14.77
2018-12-16T21:41:37.060Z,14.63
2018-12-16T21:44:04.018Z,15.77
2018-12-16T21:46:30.976Z,15.73
2018-12-16T21:48:57.913Z,14.53
2018-12-16T21:51:24.886Z,15.37
2018-12-16T21:53:51.834Z,15.10
2018-12-16T21:56:18.796Z,14.80
2018-12-16T21:58:45.753Z,15.83
2018-12-16T22:01:12.679Z,14.67
2018-12-16T22:03:39.637Z,16.20
2018-12-16T22:06:06.604Z,15.67
2018-12-16T22:08:33.587Z,15.87
2018-12-16T22:11:00.521Z,15.60
2018-12-16T22:13:27.473Z,15.43
2018-12-16T22:15:54.466Z,16.30
2018-12-16T22:18:21.336Z,16.27
2018-12-16T22:20:48.314Z,14.97
2018-12-16T22:23:15.255Z,15.90
2018-12-16T22:25:42.240Z,15.47
2018-12-16T22:28:09.634Z,15.20
2018-12-16T22:30:36.576Z,15.13
2018-12-16T22:33:03.573Z,15.50
2018-12-16T22:35:30.545Z,15.83
2018-12-16T22:37:57.509Z,16.00
2018-12-16T22:40:24.442Z,15.30
2018-12-16T22:42:51.406Z,15.70
2018-12-16T22:45:18.344Z,15.23
2018-12-16T22:47:45.292Z,15.17
2018-12-16T22:50:12.283Z,15.33
2018-12-16T22:52:39.229Z,15.63
2018-12-16T22:55:06.165Z,14.67
2018-12-16T22:57:33.137Z,14.47
2018-12-16T23:00:00.092Z,14.10
2018-12-16T23:02:27.048Z,15.30
2018-12-16T23:04:54.012Z,14.80
2018-12-16T23:07:20.976Z,14.57
2018-12-16T23:09:47.936Z,15.07
2018-12-16T23:12:14.926Z,14.47
2018-12-16T23:14:41.876Z,14.90
2018-12-16T23:17:08.825Z,15.53
2018-12-16T23:19:35.833Z,15.53
2018-12-16T23:22:02.776Z,14.70
2018-12-16T23:24:29.751Z,15.33
2018-12-16T23:26:56.747Z,14.90
2018-12-16T23:29:24.143Z,14.60
2018-12-16T23:31:51.091Z,15.23
2018-12-16T23:34:18.054Z,15.23
2018-12-16T23:36:45.022Z,14.60
2018-12-16T23:39:12.017Z,13.87
2018-12-16T23:41:38.997Z,19.50
2018-12-16T23:44:05.931Z,25.60
2018-12-16T23:46:32.869Z,18.43
2018-12-16T23:48:59.861Z,16.10
2018-12-16T23:51:26.823Z,16.37
2018-12-16T23:53:53.769Z,15.70
2018-12-16T23:56:20.776Z,15.27
2018-12-16T23:58:47.704Z,44.37
